Bredon, United Kingdom
Current Conditions -  °F | °C
As of 5:16 AM on Sunday 21 Dec 2014 (Local Time) from EGVA Reporting Station
Overcast Overcast  
Wind Chill: 37°   Ceiling: 1400
Heat Index: 43°   Visibility: 6mi
Dew Point: 43°   Wind: 9mph
Humidity: 100%   Direction: 220°SW
Pressure: 30.35"   Gusts: NA
Location:  52.03°N, 2.11°W
Report Text: EGVA 210516Z AUTO 22008KT 9999 SCT005 BKN014 OVC024 06/06 A3035 RMK AO2 DZE0506 CIG 005V014
Loading
Personal Weather Stations






























Interactive Weather Map New forecast layout! Learn more

10-Day Weather Forecast

Advertisements
Track Severe Weather on mobile